createdAt,value
2022-08-28T00:00:32.687Z,5.32
2022-08-28T00:05:32.266Z,5.32
2022-08-28T00:10:31.059Z,5.57
2022-08-28T00:15:30.295Z,5.55
2022-08-28T00:17:58.655Z,5.95
2022-08-28T00:20:29.285Z,5.78
2022-08-28T00:22:57.562Z,5.90
2022-08-28T00:25:27.699Z,5.85
2022-08-28T00:27:57.584Z,5.82
2022-08-28T00:30:29.562Z,5.30
2022-08-28T00:33:00.665Z,5.60
2022-08-28T00:35:30.316Z,5.80
2022-08-28T00:37:58.255Z,5.97
2022-08-28T00:40:32.833Z,4.97
2022-08-28T00:43:01.516Z,4.50
2022-08-28T00:45:30.546Z,5.22
2022-08-28T00:47:58.605Z,4.80
2022-08-28T00:50:30.159Z,4.32
2022-08-28T00:53:00.864Z,5.05
2022-08-28T00:58:00.578Z,5.07
2022-08-28T01:00:31.711Z,4.47
2022-08-28T01:02:59.959Z,4.80
2022-08-28T01:05:31.394Z,5.13
2022-08-28T01:10:31.166Z,5.05
2022-08-28T01:13:00.047Z,5.05
2022-08-28T01:15:31.298Z,4.53
2022-08-28T01:18:07.829Z,5.10
2022-08-28T01:23:20.068Z,4.85
2022-08-28T01:28:18.578Z,5.15
2022-08-28T01:30:49.111Z,5.28
2022-08-28T01:33:17.307Z,5.45
2022-08-28T01:35:48.635Z,5.05
2022-08-28T01:38:20.229Z,4.93
2022-08-28T01:40:57.835Z,4.97
2022-08-28T01:43:27.651Z,4.82
2022-08-28T01:46:01.087Z,5.18
2022-08-28T01:48:31.290Z,5.03
2022-08-28T01:50:59.270Z,4.65
2022-08-28T01:53:32.981Z,4.85
2022-08-28T01:56:04.756Z,5.53
2022-08-28T01:58:37.902Z,4.82
2022-08-28T02:03:37.603Z,4.97
2022-08-28T02:06:06.191Z,5.00
2022-08-28T02:08:34.054Z,5.60
2022-08-28T02:11:03.504Z,4.70
2022-08-28T02:13:31.399Z,5.22
2022-08-28T02:15:59.365Z,5.03
2022-08-28T02:18:27.229Z,4.13
2022-08-28T02:20:55.066Z,4.85
2022-08-28T02:23:23.019Z,5.07
2022-08-28T02:25:50.892Z,5.10
2022-08-28T02:28:20.259Z,4.28
2022-08-28T02:30:48.493Z,4.97
2022-08-28T02:33:16.476Z,4.63
2022-08-28T02:38:12.667Z,5.15
2022-08-28T02:40:42.114Z,4.68
2022-08-28T02:43:09.917Z,5.30
2022-08-28T02:45:39.162Z,4.85
2022-08-28T02:48:16.721Z,5.18
2022-08-28T02:50:46.266Z,5.18
2022-08-28T02:53:14.945Z,5.13
2022-08-28T02:58:10.915Z,4.88
2022-08-28T03:03:08.728Z,5.93
2022-08-28T03:05:36.526Z,5.50
2022-08-28T03:08:05.250Z,5.03
2022-08-28T03:17:58.255Z,6.40
2022-08-28T03:20:26.062Z,5.30
2022-08-28T03:23:11.543Z,5.53
2022-08-28T03:25:39.396Z,5.28
2022-08-28T03:28:07.296Z,6.03
2022-08-28T03:30:35.192Z,5.07
2022-08-28T03:33:04.775Z,5.38
2022-08-28T03:38:00.762Z,5.45
2022-08-28T03:40:28.615Z,5.03
2022-08-28T03:42:56.519Z,4.82
2022-08-28T03:45:24.421Z,5.00
2022-08-28T03:50:22.925Z,5.18
2022-08-28T03:52:52.603Z,5.07
2022-08-28T03:55:20.661Z,4.93
2022-08-28T03:57:48.521Z,5.03
2022-08-28T04:02:46.244Z,4.80
2022-08-28T04:12:41.331Z,5.25
2022-08-28T04:15:10.849Z,5.03
2022-08-28T04:17:39.505Z,5.18
2022-08-28T04:20:09.888Z,5.15
2022-08-28T04:22:38.297Z,5.28
2022-08-28T04:25:08.951Z,5.20
2022-08-28T04:27:37.004Z,4.82
2022-08-28T04:32:35.491Z,5.10
2022-08-28T04:35:03.793Z,5.53
2022-08-28T04:40:00.172Z,5.07
2022-08-28T04:42:29.523Z,5.25
2022-08-28T04:47:25.958Z,5.35
2022-08-28T04:49:54.054Z,5.20
2022-08-28T04:54:50.749Z,5.65
2022-08-28T04:57:18.560Z,5.18
2022-08-28T04:59:47.899Z,5.18
2022-08-28T05:02:16.398Z,5.25
2022-08-28T05:04:44.272Z,4.80
2022-08-28T05:07:12.079Z,5.20
2022-08-28T05:09:39.923Z,5.00
2022-08-28T05:12:07.848Z,5.13
2022-08-28T05:14:36.744Z,5.38
2022-08-28T05:17:06.271Z,5.10
2022-08-28T05:19:34.391Z,4.50
2022-08-28T05:26:58.123Z,5.28
2022-08-28T05:29:25.959Z,4.60
2022-08-28T05:39:19.299Z,4.22
2022-08-28T05:41:47.278Z,4.07
2022-08-28T05:46:48.544Z,4.70
2022-08-28T05:49:17.909Z,4.53
2022-08-28T05:56:46.091Z,4.50
2022-08-28T05:59:14.743Z,4.20
2022-08-28T06:01:45.098Z,4.22
2022-08-28T06:04:17.768Z,4.60
2022-08-28T06:09:20.312Z,4.18
2022-08-28T06:11:48.900Z,4.32
2022-08-28T06:14:20.755Z,3.90
2022-08-28T06:16:50.879Z,4.13
2022-08-28T06:19:18.965Z,4.28
2022-08-28T06:26:44.811Z,3.80
2022-08-28T06:29:15.668Z,4.07
2022-08-28T06:34:12.167Z,3.90
2022-08-28T06:36:42.215Z,3.70
2022-08-28T06:39:14.518Z,3.70
2022-08-28T06:44:13.557Z,4.40
2022-08-28T06:46:42.276Z,4.00
2022-08-28T06:49:10.162Z,3.92
2022-08-28T06:51:38.410Z,3.90
2022-08-28T06:54:07.030Z,4.05
2022-08-28T06:56:36.779Z,4.50
2022-08-28T06:59:05.139Z,3.85
2022-08-28T07:01:35.749Z,3.60
2022-08-28T07:04:07.554Z,3.38
2022-08-28T07:06:37.434Z,3.50
2022-08-28T07:09:07.080Z,3.75
2022-08-28T07:11:37.757Z,3.30
2022-08-28T07:14:06.493Z,3.33
2022-08-28T07:21:38.741Z,3.55
2022-08-28T07:26:37.256Z,3.10
2022-08-28T07:29:10.819Z,2.95
2022-08-28T07:31:41.455Z,3.03
2022-08-28T07:34:10.738Z,3.10
2022-08-28T07:36:39.343Z,3.28
2022-08-28T07:39:08.673Z,2.90
2022-08-28T07:41:40.371Z,3.20
2022-08-28T07:44:27.081Z,2.83
2022-08-28T07:46:55.846Z,3.30
2022-08-28T07:49:24.458Z,3.10
2022-08-28T07:51:54.147Z,2.78
2022-08-28T07:54:22.682Z,3.30
2022-08-28T07:56:52.743Z,2.83
2022-08-28T07:59:22.091Z,3.25
2022-08-28T08:01:51.877Z,2.85
2022-08-28T08:04:21.158Z,2.90
2022-08-28T08:09:22.224Z,3.67
2022-08-28T08:11:51.539Z,2.83
2022-08-28T08:14:19.442Z,3.10
2022-08-28T08:16:48.679Z,3.33
2022-08-28T08:19:18.935Z,2.85
2022-08-28T08:21:54.745Z,3.10
2022-08-28T08:24:26.210Z,3.10
2022-08-28T08:26:59.624Z,3.08
2022-08-28T08:29:31.399Z,3.00
2022-08-28T08:32:05.596Z,3.05
2022-08-28T08:34:35.058Z,3.25
2022-08-28T08:37:02.902Z,2.88
2022-08-28T08:39:31.771Z,3.38
2022-08-28T08:42:03.866Z,3.00
2022-08-28T08:44:34.863Z,2.97
2022-08-28T08:47:14.982Z,3.03
2022-08-28T08:49:53.018Z,3.15
2022-08-28T08:52:36.016Z,3.22
2022-08-28T08:55:17.726Z,3.13
2022-08-28T08:57:52.357Z,3.08
2022-08-28T09:00:21.692Z,3.30
2022-08-28T09:02:57.172Z,3.95
2022-08-28T09:08:03.641Z,3.00
2022-08-28T09:10:37.911Z,2.80
2022-08-28T09:13:20.565Z,2.88
2022-08-28T09:15:50.896Z,3.60
2022-08-28T09:18:22.966Z,3.28
2022-08-28T09:20:52.417Z,3.22
2022-08-28T09:23:20.327Z,2.83
2022-08-28T09:25:53.056Z,3.42
2022-08-28T09:28:25.677Z,2.60
2022-08-28T09:31:01.176Z,2.88
2022-08-28T09:33:35.188Z,2.83
2022-08-28T09:36:28.314Z,2.97
2022-08-28T09:39:08.390Z,3.38
2022-08-28T09:41:57.821Z,2.80
2022-08-28T09:44:27.217Z,3.17
2022-08-28T09:46:55.174Z,3.25
2022-08-28T09:49:26.381Z,3.88
2022-08-28T09:51:54.813Z,4.18
2022-08-28T09:54:30.190Z,3.78
2022-08-28T09:56:58.322Z,3.75
2022-08-28T09:59:30.002Z,3.80
2022-08-28T10:02:22.403Z,3.63
2022-08-28T10:05:02.288Z,4.47
2022-08-28T10:07:40.620Z,3.95
2022-08-28T10:10:22.088Z,4.07
2022-08-28T10:13:03.541Z,3.70
2022-08-28T10:15:45.020Z,3.67
2022-08-28T10:18:30.540Z,4.22
2022-08-28T10:21:08.011Z,3.63
2022-08-28T10:23:45.021Z,2.92
2022-08-28T10:26:25.761Z,3.78
2022-08-28T10:29:03.920Z,3.55
2022-08-28T10:34:22.892Z,4.28
2022-08-28T10:37:01.027Z,3.97
2022-08-28T10:39:42.698Z,3.35
2022-08-28T10:42:10.774Z,3.67
2022-08-28T10:44:45.456Z,3.40
2022-08-28T10:47:16.051Z,3.70
2022-08-28T10:49:47.705Z,3.70
2022-08-28T10:52:20.868Z,3.47
2022-08-28T10:57:36.207Z,3.80
2022-08-28T11:00:12.176Z,3.83
2022-08-28T11:02:43.421Z,3.67
2022-08-28T11:05:12.055Z,3.30
2022-08-28T11:10:21.560Z,3.70
2022-08-28T11:12:52.532Z,3.13
2022-08-28T11:15:42.577Z,3.67
2022-08-28T11:18:43.540Z,3.70
2022-08-28T11:21:17.572Z,3.60
2022-08-28T11:23:51.402Z,3.45
2022-08-28T11:26:31.320Z,3.25
2022-08-28T11:29:00.962Z,3.15
2022-08-28T11:31:46.652Z,3.30
2022-08-28T11:34:53.211Z,4.00
2022-08-28T11:37:40.846Z,3.33
2022-08-28T11:40:19.327Z,3.65
2022-08-28T11:42:48.839Z,3.80
2022-08-28T11:45:22.228Z,3.72
2022-08-28T11:47:56.808Z,4.05
2022-08-28T11:53:34.715Z,3.60
2022-08-28T11:56:35.991Z,3.33
2022-08-28T11:59:37.397Z,3.40
2022-08-28T12:02:46.208Z,3.35
2022-08-28T12:05:51.601Z,3.42
2022-08-28T12:09:11.706Z,4.05
2022-08-28T12:12:10.054Z,4.45
2022-08-28T12:15:09.609Z,5.38
2022-08-28T12:17:47.049Z,4.00
2022-08-28T12:20:23.983Z,4.85
2022-08-28T12:22:53.697Z,3.88
2022-08-28T12:25:28.882Z,3.67
2022-08-28T12:30:30.923Z,4.20
2022-08-28T12:35:43.199Z,4.10
2022-08-28T12:38:20.309Z,4.00
2022-08-28T12:43:29.469Z,3.67
2022-08-28T12:48:31.661Z,3.60
2022-08-28T12:51:03.119Z,4.30
2022-08-28T12:53:40.657Z,3.97
2022-08-28T12:56:10.759Z,4.07
2022-08-28T12:58:41.452Z,4.35
2022-08-28T13:01:14.318Z,4.00
2022-08-28T13:03:44.981Z,3.47
2022-08-28T13:06:13.732Z,4.00
2022-08-28T13:08:41.988Z,3.97
2022-08-28T13:11:09.959Z,3.60
2022-08-28T13:13:46.658Z,3.80
2022-08-28T13:16:34.895Z,3.35
2022-08-28T13:19:27.441Z,3.55
2022-08-28T13:22:00.459Z,3.88
2022-08-28T13:24:38.602Z,3.50
2022-08-28T13:27:24.676Z,3.42
2022-08-28T13:30:27.545Z,4.10
2022-08-28T13:32:58.104Z,3.72
2022-08-28T13:35:38.900Z,3.15
2022-08-28T13:38:10.106Z,4.53
2022-08-28T13:40:57.504Z,3.70
2022-08-28T13:43:29.046Z,4.15
2022-08-28T13:45:58.865Z,3.47
2022-08-28T13:48:28.888Z,4.07
2022-08-28T13:51:03.546Z,3.30
2022-08-28T13:53:33.123Z,3.53
2022-08-28T13:56:01.564Z,7.05
2022-08-28T13:58:29.627Z,4.13
2022-08-28T14:00:59.218Z,3.03
2022-08-28T14:03:38.886Z,4.45
2022-08-28T14:06:09.275Z,3.80
2022-08-28T14:08:37.156Z,3.38
2022-08-28T14:11:05.689Z,4.35
2022-08-28T14:13:33.485Z,3.72
2022-08-28T14:16:05.725Z,3.25
2022-08-28T14:18:34.140Z,2.97
2022-08-28T14:21:01.999Z,3.38
2022-08-28T14:23:29.811Z,3.78
2022-08-28T14:25:58.297Z,3.65
2022-08-28T14:28:26.102Z,3.70
2022-08-28T14:30:53.985Z,4.35
2022-08-28T14:33:23.207Z,3.72
2022-08-28T14:35:51.054Z,3.70
2022-08-28T14:38:19.089Z,3.67
2022-08-28T14:40:46.976Z,3.22
2022-08-28T14:43:15.981Z,3.22
2022-08-28T14:45:45.967Z,2.92
2022-08-28T14:48:14.775Z,3.28
2022-08-28T14:50:46.248Z,2.95
2022-08-28T14:55:44.689Z,3.00
2022-08-28T14:58:13.512Z,3.00
2022-08-28T15:00:43.500Z,2.97
2022-08-28T15:03:12.480Z,2.58
2022-08-28T15:05:41.142Z,2.63
2022-08-28T15:08:11.785Z,3.03
2022-08-28T15:10:40.702Z,2.60
2022-08-28T15:13:10.302Z,2.83
2022-08-28T15:15:39.551Z,3.67
2022-08-28T15:20:38.984Z,3.13
2022-08-28T15:23:07.110Z,2.78
2022-08-28T15:25:36.576Z,3.13
2022-08-28T15:28:04.919Z,2.72
2022-08-28T15:30:33.157Z,2.83
2022-08-28T15:35:30.409Z,3.08
2022-08-28T15:37:58.630Z,2.55
2022-08-28T15:40:44.100Z,2.30
2022-08-28T15:43:13.605Z,3.25
2022-08-28T15:45:42.886Z,3.10
2022-08-28T15:48:12.232Z,2.97
2022-08-28T15:50:42.041Z,2.72
2022-08-28T15:53:10.742Z,2.92
2022-08-28T15:55:38.728Z,3.28
2022-08-28T15:58:13.855Z,2.60
2022-08-28T16:00:43.998Z,2.80
2022-08-28T16:03:12.155Z,3.35
2022-08-28T16:05:40.669Z,2.90
2022-08-28T16:10:37.478Z,3.20
2022-08-28T16:13:06.762Z,2.83
2022-08-28T16:15:35.173Z,2.72
2022-08-28T16:18:08.879Z,2.63
2022-08-28T16:20:37.504Z,4.20
2022-08-28T16:23:05.477Z,2.65
2022-08-28T16:25:33.290Z,5.43
2022-08-28T16:28:01.131Z,3.85
2022-08-28T16:30:28.988Z,3.33
2022-08-28T16:35:26.140Z,3.10
2022-08-28T16:37:54.002Z,3.03
2022-08-28T16:40:21.989Z,3.30
2022-08-28T16:42:51.619Z,2.65
2022-08-28T16:45:19.954Z,2.85
2022-08-28T16:47:48.224Z,2.85
2022-08-28T16:50:17.336Z,3.20
2022-08-28T16:52:46.635Z,2.65
2022-08-28T16:57:43.075Z,3.50
2022-08-28T17:00:13.569Z,2.67
2022-08-28T17:02:41.782Z,3.35
2022-08-28T17:05:10.258Z,2.72
2022-08-28T17:07:39.810Z,3.75
2022-08-28T17:10:12.176Z,2.85
2022-08-28T17:12:40.139Z,3.42
2022-08-28T17:15:09.621Z,2.90
2022-08-28T17:17:39.506Z,2.85
2022-08-28T17:20:29.558Z,2.95
2022-08-28T17:25:27.714Z,2.90
2022-08-28T17:27:56.025Z,2.85
2022-08-28T17:30:24.127Z,2.70
2022-08-28T17:32:52.012Z,2.50
2022-08-28T17:35:20.372Z,3.13
2022-08-28T17:40:19.343Z,2.80
2022-08-28T17:42:53.608Z,2.70
2022-08-28T17:45:21.529Z,2.80
2022-08-28T17:47:49.604Z,2.70
2022-08-28T17:50:17.452Z,2.80
2022-08-28T17:52:45.270Z,3.25
2022-08-28T17:55:13.174Z,3.17
2022-08-28T17:57:41.176Z,2.83
2022-08-28T18:00:14.236Z,2.60
2022-08-28T18:02:42.053Z,3.40
2022-08-28T18:05:12.112Z,2.85
2022-08-28T18:07:40.188Z,3.22
2022-08-28T18:10:09.599Z,3.40
2022-08-28T18:12:37.582Z,2.90
2022-08-28T18:17:37.746Z,2.88
2022-08-28T18:20:06.745Z,3.28
2022-08-28T18:22:34.678Z,3.45
2022-08-28T18:25:04.099Z,2.92
2022-08-28T18:27:34.405Z,3.00
2022-08-28T18:30:02.676Z,3.17
2022-08-28T18:34:59.793Z,2.97
2022-08-28T18:37:27.655Z,3.28
2022-08-28T18:39:55.520Z,3.65
2022-08-28T18:42:24.312Z,3.38
2022-08-28T18:44:52.131Z,4.25
2022-08-28T18:47:19.977Z,6.57
2022-08-28T18:49:47.826Z,3.67
2022-08-28T18:52:17.059Z,3.67
2022-08-28T18:54:44.846Z,3.45
2022-08-28T18:57:14.124Z,2.65
2022-08-28T18:59:41.954Z,2.95
2022-08-28T19:02:09.902Z,3.63
2022-08-28T19:04:38.041Z,3.17
2022-08-28T19:07:06.314Z,3.65
2022-08-28T19:09:35.570Z,2.70
2022-08-28T19:12:04.259Z,3.35
2022-08-28T19:14:32.115Z,2.78
2022-08-28T19:17:00.810Z,3.30
2022-08-28T19:19:29.128Z,3.35
2022-08-28T19:21:57.189Z,2.60
2022-08-28T19:24:26.612Z,2.97
2022-08-28T19:26:56.011Z,2.85
2022-08-28T19:29:23.913Z,2.80
2022-08-28T19:31:52.441Z,2.90
2022-08-28T19:34:20.646Z,3.15
2022-08-28T19:36:48.590Z,3.22
2022-08-28T19:39:16.635Z,3.08
2022-08-28T19:41:45.166Z,3.38
2022-08-28T19:44:15.025Z,2.50
2022-08-28T19:46:43.043Z,2.50
2022-08-28T19:49:11.378Z,3.25
2022-08-28T19:51:41.225Z,2.75
2022-08-28T19:54:11.140Z,2.80
2022-08-28T19:56:39.986Z,2.75
2022-08-28T19:59:08.898Z,3.40
2022-08-28T20:01:40.231Z,2.80
2022-08-28T20:04:09.498Z,2.60
2022-08-28T20:06:38.115Z,3.03
2022-08-28T20:09:12.050Z,3.20
2022-08-28T20:14:10.082Z,2.30
2022-08-28T20:21:42.707Z,3.10
2022-08-28T20:24:13.581Z,2.70
2022-08-28T20:26:42.162Z,2.90
2022-08-28T20:29:11.226Z,2.63
2022-08-28T20:31:42.217Z,2.88
2022-08-28T20:34:10.474Z,2.70
2022-08-28T20:36:38.665Z,2.25
2022-08-28T20:39:09.329Z,2.60
2022-08-28T20:41:38.439Z,2.60
2022-08-28T20:44:07.762Z,2.38
2022-08-28T20:46:40.766Z,2.40
2022-08-28T20:49:11.935Z,2.08
2022-08-28T20:51:57.711Z,2.20
2022-08-28T20:56:58.847Z,2.15
2022-08-28T20:59:34.379Z,2.50
2022-08-28T21:02:10.417Z,2.58
2022-08-28T21:04:41.261Z,2.63
2022-08-28T21:07:09.681Z,2.10
2022-08-28T21:12:25.640Z,2.53
2022-08-28T21:14:53.520Z,2.45
2022-08-28T21:17:30.195Z,2.85
2022-08-28T21:20:03.005Z,2.22
2022-08-28T21:22:35.287Z,2.28
2022-08-28T21:25:04.403Z,2.15
2022-08-28T21:27:32.309Z,2.08
2022-08-28T21:30:01.375Z,2.13
2022-08-28T21:32:32.685Z,2.83
2022-08-28T21:35:03.047Z,2.03
2022-08-28T21:37:31.363Z,2.50
2022-08-28T21:42:27.822Z,2.22
2022-08-28T21:44:55.607Z,2.15
2022-08-28T21:47:24.533Z,1.83
2022-08-28T21:49:53.712Z,2.10
2022-08-28T21:52:25.421Z,2.50
2022-08-28T21:54:58.009Z,2.17
2022-08-28T21:57:26.657Z,1.98
2022-08-28T21:59:55.451Z,2.38
2022-08-28T22:02:23.577Z,2.10
2022-08-28T22:04:51.636Z,1.80
2022-08-28T22:07:20.648Z,2.42
2022-08-28T22:09:50.780Z,2.22
2022-08-28T22:12:18.890Z,2.72
2022-08-28T22:14:47.093Z,2.20
2022-08-28T22:17:16.323Z,2.03
2022-08-28T22:19:46.605Z,2.10
2022-08-28T22:22:32.703Z,2.50
2022-08-28T22:25:01.966Z,2.35
2022-08-28T22:27:31.900Z,2.15
2022-08-28T22:29:59.965Z,1.88
2022-08-28T22:32:28.057Z,2.00
2022-08-28T22:34:56.325Z,1.77
2022-08-28T22:37:25.865Z,2.40
2022-08-28T22:39:53.973Z,1.95
2022-08-28T22:42:23.242Z,2.20
2022-08-28T22:44:51.095Z,1.80
2022-08-28T22:47:19.147Z,2.35
2022-08-28T22:49:47.053Z,2.40
2022-08-28T22:52:15.393Z,2.28
2022-08-28T22:54:43.322Z,2.30
2022-08-28T22:57:11.179Z,1.92
2022-08-28T22:59:40.449Z,1.83
2022-08-28T23:02:08.365Z,2.10
2022-08-28T23:04:36.226Z,2.13
2022-08-28T23:07:04.089Z,2.45
2022-08-28T23:12:00.096Z,1.92
2022-08-28T23:14:28.271Z,2.50
2022-08-28T23:16:57.503Z,2.00
2022-08-28T23:19:25.667Z,2.30
2022-08-28T23:21:54.294Z,2.15
2022-08-28T23:24:22.094Z,2.10
2022-08-28T23:29:17.892Z,1.90
2022-08-28T23:36:43.491Z,2.13
2022-08-28T23:41:40.620Z,3.05
2022-08-28T23:44:09.637Z,2.55
2022-08-28T23:46:41.278Z,2.38
2022-08-28T23:49:09.739Z,2.60
2022-08-28T23:51:39.543Z,2.80
2022-08-28T23:54:08.422Z,2.50
2022-08-28T23:56:37.130Z,2.72
